Time;durP1;ratioP1;P1;durP2;ratioP2;P2;SDS_P1;SDS_P2;PMS_P1;PMS_P2;Temp;Humidity;BMP_temperature;BMP_pressure;BME280_temperature;BME280_humidity;BME280_pressure;Samples;Min_cycle;Max_cycle;Signal;HPM_P1;HPM_P2
2022/08/26 00:00:00;;;;;;;;;;;;;;;-142.75;100.00;76265.19;5055144;28;19975;-66
2022/08/26 00:02:25;;;;;;;;;;;;;;;-142.75;100.00;76259.28;5054875;28;19913;-66
2022/08/26 00:04:50;;;;;;;;;;;;;;;-142.75;100.00;76267.16;5054867;28;19968;-66
2022/08/26 00:07:16;;;;;;;;;;;;;;;-142.75;100.00;76273.06;5054567;28;20340;-66
2022/08/26 00:09:41;;;;;;;;;;;;;;;-142.75;100.00;76263.22;5054494;28;20394;-66
2022/08/26 00:12:08;;;;;;;;;;;;;;;-142.75;100.00;76275.03;5054727;28;20330;-66
2022/08/26 00:14:33;;;;;;;;;;;;;;;-142.75;100.00;76275.03;5054698;28;19912;-65
2022/08/26 00:16:58;;;;;;;;;;;;;;;-142.75;100.00;76273.06;5054201;28;19917;-65
2022/08/26 00:19:23;;;;;;;;;;;;;;;-142.75;100.00;76280.94;5054703;28;20366;-66
2022/08/26 00:21:49;;;;;;;;;;;;;;;-142.75;100.00;76277.00;5055059;28;19920;-66
2022/08/26 00:24:14;;;;;;;;;;;;;;;-142.75;100.00;76267.16;5054857;28;19913;-66
2022/08/26 00:26:40;;;;;;;;;;;;;;;-142.75;100.00;76296.69;5054137;28;20016;-66
2022/08/26 00:29:05;;;;;;;;;;;;;;;-142.75;100.00;76282.91;5054776;28;20011;-66
2022/08/26 00:31:31;;;;;;;;;;;;;;;-142.75;100.00;76288.81;5054621;28;20271;-66
2022/08/26 00:33:56;;;;;;;;;;;;;;;-142.75;100.00;76282.91;5054339;28;19916;-66
2022/08/26 00:36:21;;;;;;;;;;;;;;;-142.75;100.00;76296.69;5054356;28;20007;-65
2022/08/26 00:38:46;;;;;;;;;;;;;;;-142.75;100.00;76294.72;5054243;28;19913;-66
2022/08/26 00:41:12;;;;;;;;;;;;;;;-142.75;100.00;76292.75;5054237;28;20292;-66
2022/08/26 00:43:37;;;;;;;;;;;;;;;-142.75;100.00;76294.72;5054187;28;19913;-66
2022/08/26 00:46:07;;;;;;;;;;;;;;;-142.75;100.00;76290.78;5054121;28;19917;-65
2022/08/26 00:48:32;;;;;;;;;;;;;;;-142.75;100.00;76300.63;5053691;28;20298;-65
2022/08/26 00:51:18;;;;;;;;;;;;;;;-142.75;100.00;76294.72;5054066;28;19917;-65
2022/08/26 00:53:46;;;;;;;;;;;;;;;-142.75;100.00;76286.84;5053732;28;19913;-65
2022/08/26 00:56:25;;;;;;;;;;;;;;;-142.75;100.00;76290.78;5036087;28;20007;-66
2022/08/26 00:58:50;;;;;;;;;;;;;;;-142.75;100.00;76302.59;5053862;28;20054;-65
2022/08/26 01:01:16;;;;;;;;;;;;;;;-142.75;100.00;76298.66;5053923;28;20015;-66
2022/08/26 01:03:43;;;;;;;;;;;;;;;-142.75;100.00;76302.59;5054014;28;19912;-66
2022/08/26 01:06:08;;;;;;;;;;;;;;;-142.75;100.00;76298.66;5047247;28;19976;-66
2022/08/26 01:08:34;;;;;;;;;;;;;;;-142.75;100.00;76294.72;5065372;23;19924;-68
2022/08/26 01:11:00;;;;;;;;;;;;;;;-142.75;100.00;76306.53;5091239;28;20101;-68
2022/08/26 01:13:26;;;;;;;;;;;;;;;-142.75;100.00;76318.34;5092805;28;19919;-68
2022/08/26 01:15:53;;;;;;;;;;;;;;;-142.75;100.00;76314.41;5092953;28;20006;-69
2022/08/26 01:18:19;;;;;;;;;;;;;;;-142.75;100.00;76318.34;5084474;28;19916;-70
2022/08/26 01:20:49;;;;;;;;;;;;;;;-142.75;100.00;76300.63;5072739;28;19974;-70
2022/08/26 01:23:15;;;;;;;;;;;;;;;-142.75;100.00;76310.47;5072909;28;20014;-70
2022/08/26 01:25:51;;;;;;;;;;;;;;;-142.75;100.00;76312.44;5072625;28;20114;-71
2022/08/26 01:28:20;;;;;;;;;;;;;;;-142.75;100.00;76302.59;5071505;28;19920;-70
2022/08/26 01:30:47;;;;;;;;;;;;;;;-142.75;100.00;76324.25;5072345;28;19917;-70
2022/08/26 01:33:16;;;;;;;;;;;;;;;-142.75;100.00;76304.56;5072686;28;19913;-70
2022/08/26 01:35:41;;;;;;;;;;;;;;;-142.75;100.00;76320.31;5072657;28;20003;-70
2022/08/26 01:38:07;;;;;;;;;;;;;;;-142.75;100.00;76326.22;5072212;28;20412;-70
2022/08/26 01:40:36;;;;;;;;;;;;;;;-142.75;100.00;76324.25;5072472;28;19927;-70
2022/08/26 01:43:01;;;;;;;;;;;;;;;-142.75;100.00;76328.19;5072469;28;19965;-70
2022/08/26 01:45:29;;;;;;;;;;;;;;;-142.75;100.00;76332.13;5072398;28;19920;-70
2022/08/26 01:47:56;;;;;;;;;;;;;;;-142.75;100.00;76340.00;5072088;28;19919;-70
2022/08/26 01:50:29;;;;;;;;;;;;;;;-142.75;100.00;76322.28;5072443;28;19920;-70
2022/08/26 01:52:54;;;;;;;;;;;;;;;-142.75;100.00;76314.41;5072358;28;20003;-70
2022/08/26 01:55:20;;;;;;;;;;;;;;;-142.75;100.00;76320.31;5071016;28;19999;-69
2022/08/26 01:57:48;;;;;;;;;;;;;;;-142.75;100.00;76318.34;5071802;28;19917;-70
2022/08/26 02:00:14;;;;;;;;;;;;;;;-142.75;100.00;76338.03;5071048;28;19912;-70
2022/08/26 02:02:44;;;;;;;;;;;;;;;-142.75;100.00;76330.16;5072348;28;20377;-70
2022/08/26 02:05:13;;;;;;;;;;;;;;;-142.75;100.00;76330.16;5072145;28;19927;-69
2022/08/26 02:07:39;;;;;;;;;;;;;;;-142.75;100.00;76330.16;5071801;28;19912;-70
2022/08/26 02:10:05;;;;;;;;;;;;;;;-142.75;100.00;76328.19;5072035;28;20328;-70
2022/08/26 02:12:30;;;;;;;;;;;;;;;-142.75;100.00;76338.03;5072178;28;19912;-70
2022/08/26 02:14:58;;;;;;;;;;;;;;;-142.75;100.00;76338.03;5070874;28;19912;-70
2022/08/26 02:17:28;;;;;;;;;;;;;;;-142.75;100.00;76343.94;5071890;28;19919;-70
2022/08/26 02:19:53;;;;;;;;;;;;;;;-142.75;100.00;76340.00;5070725;28;19912;-69
2022/08/26 02:22:20;;;;;;;;;;;;;;;-142.75;100.00;76343.94;5072106;28;19966;-70
2022/08/26 02:24:55;;;;;;;;;;;;;;;-142.75;100.00;76353.78;5070459;28;19923;-70
2022/08/26 02:27:22;;;;;;;;;;;;;;;-142.75;100.00;76363.59;5071734;28;19912;-70
2022/08/26 02:29:51;;;;;;;;;;;;;;;-142.75;100.00;76361.63;5071931;28;20003;-70
2022/08/26 02:32:16;;;;;;;;;;;;;;;-142.75;100.00;76369.50;5072053;28;19971;-70
2022/08/26 02:34:41;;;;;;;;;;;;;;;-142.75;100.00;76357.69;5071948;28;20390;-69
2022/08/26 02:37:08;;;;;;;;;;;;;;;-142.75;100.00;76369.50;5071629;28;19912;-70
2022/08/26 02:39:35;;;;;;;;;;;;;;;-142.75;100.00;76373.44;5073379;28;20436;-70
2022/08/26 02:42:01;;;;;;;;;;;;;;;-142.75;100.00;76381.31;5075930;28;19970;-70
2022/08/26 02:44:26;;;;;;;;;;;;;;;-142.75;100.00;76373.44;5075877;28;19913;-69
2022/08/26 02:46:52;;;;;;;;;;;;;;;-142.75;100.00;76365.56;5075577;28;20335;-70
2022/08/26 02:49:18;;;;;;;;;;;;;;;-142.75;100.00;76375.41;5075786;28;19923;-70
2022/08/26 02:51:44;;;;;;;;;;;;;;;-142.75;100.00;76377.38;5075416;28;19912;-68
2022/08/26 02:54:09;;;;;;;;;;;;;;;-142.75;100.00;76373.44;5075221;28;19922;-70
2022/08/26 02:56:34;;;;;;;;;;;;;;;-142.75;100.00;76373.44;5074867;28;20011;-69
2022/08/26 02:58:59;;;;;;;;;;;;;;;-142.75;100.00;76375.41;5075102;28;19969;-70
2022/08/26 03:01:30;;;;;;;;;;;;;;;-142.75;100.00;76389.19;5073752;28;19912;-70
2022/08/26 03:03:56;;;;;;;;;;;;;;;-142.75;100.00;76397.06;5075095;28;19981;-70
2022/08/26 03:06:21;;;;;;;;;;;;;;;-142.75;100.00;76389.19;5074733;28;20369;-70
2022/08/26 03:08:47;;;;;;;;;;;;;;;-142.75;100.00;76387.22;5074424;28;20289;-69
2022/08/26 03:11:13;;;;;;;;;;;;;;;-142.75;100.00;76377.38;5074900;28;19913;-70
2022/08/26 03:13:39;;;;;;;;;;;;;;;-142.75;100.00;76377.38;5074858;28;19912;-69
2022/08/26 03:16:04;;;;;;;;;;;;;;;-142.75;100.00;76375.41;5074659;28;20004;-70
2022/08/26 03:18:29;;;;;;;;;;;;;;;-142.75;100.00;76377.38;5074563;28;19923;-70
2022/08/26 03:20:54;;;;;;;;;;;;;;;-142.75;100.00;76363.59;5075149;28;20266;-70
2022/08/26 03:23:20;;;;;;;;;;;;;;;-142.75;100.00;76371.47;5075053;28;19912;-69
2022/08/26 03:25:49;;;;;;;;;;;;;;;-142.75;100.00;76375.41;5075074;28;19916;-70
2022/08/26 03:28:14;;;;;;;;;;;;;;;-142.75;100.00;76369.50;5074680;28;19920;-70
2022/08/26 03:30:40;;;;;;;;;;;;;;;-142.75;100.00;76369.50;5075051;28;19917;-69
2022/08/26 03:33:05;;;;;;;;;;;;;;;-142.75;100.00;76367.53;5074947;28;19912;-70
2022/08/26 03:35:31;;;;;;;;;;;;;;;-142.75;100.00;76383.28;5074848;28;20396;-69
2022/08/26 03:37:57;;;;;;;;;;;;;;;-142.75;100.00;76377.38;5074434;28;20408;-69
2022/08/26 03:40:22;;;;;;;;;;;;;;;-142.75;100.00;76381.31;5074850;28;19995;-69
2022/08/26 03:42:47;;;;;;;;;;;;;;;-142.75;100.00;76402.97;5090425;28;19912;-69
2022/08/26 03:45:14;;;;;;;;;;;;;;;-142.75;100.00;76402.97;5074968;28;19917;-69
2022/08/26 03:47:40;;;;;;;;;;;;;;;-142.75;100.00;76402.97;5074560;28;20003;-69
2022/08/26 03:50:07;;;;;;;;;;;;;;;-142.75;100.00;76389.19;5074310;28;20539;-69
2022/08/26 03:52:32;;;;;;;;;;;;;;;-142.75;100.00;76393.13;5073389;28;19951;-69
2022/08/26 03:54:57;;;;;;;;;;;;;;;-142.75;100.00;76397.06;5073464;28;19967;-69
2022/08/26 03:57:22;;;;;;;;;;;;;;;-142.75;100.00;76397.06;5089964;28;19966;-69
2022/08/26 03:59:48;;;;;;;;;;;;;;;-142.75;100.00;76395.09;5074535;28;19913;-69
2022/08/26 04:02:13;;;;;;;;;;;;;;;-142.75;100.00;76387.22;5074494;28;20346;-70
2022/08/26 04:04:39;;;;;;;;;;;;;;;-142.75;100.00;76389.19;5073008;28;19912;-69
2022/08/26 04:07:04;;;;;;;;;;;;;;;-142.75;100.00;76377.38;5074013;28;19912;-69
2022/08/26 04:09:29;;;;;;;;;;;;;;;-142.75;100.00;76383.28;5072858;28;20011;-70
2022/08/26 04:11:54;;;;;;;;;;;;;;;-142.75;100.00;76389.19;5089875;28;19912;-69
2022/08/26 04:14:22;;;;;;;;;;;;;;;-142.75;100.00;76391.16;5074142;28;20062;-71
2022/08/26 04:16:48;;;;;;;;;;;;;;;-142.75;100.00;76375.41;5073957;28;19913;-69
2022/08/26 04:19:14;;;;;;;;;;;;;;;-142.75;100.00;76369.50;5074176;28;20011;-69
2022/08/26 04:21:40;;;;;;;;;;;;;;;-142.75;100.00;76373.44;5071573;28;20009;-70
2022/08/26 04:24:06;;;;;;;;;;;;;;;-142.75;100.00;76371.47;5071760;28;19960;-70
2022/08/26 04:26:35;;;;;;;;;;;;;;;-142.75;100.00;76375.41;5071888;28;19920;-71
2022/08/26 04:29:02;;;;;;;;;;;;;;;-142.75;100.00;76375.41;5073684;28;20034;-70
2022/08/26 04:31:27;;;;;;;;;;;;;;;-142.75;100.00;76379.34;5073641;28;19919;-70
2022/08/26 04:33:52;;;;;;;;;;;;;;;-142.75;100.00;76373.44;5072185;28;19916;-70
2022/08/26 04:36:17;;;;;;;;;;;;;;;-142.75;100.00;76385.25;5073469;28;19947;-69
2022/08/26 04:38:44;;;;;;;;;;;;;;;-142.75;100.00;76383.28;5073705;28;19912;-69
2022/08/26 04:41:10;;;;;;;;;;;;;;;-142.75;100.00;76383.28;5073670;28;19913;-71
2022/08/26 04:43:36;;;;;;;;;;;;;;;-142.75;100.00;76379.34;5073411;28;19943;-70
2022/08/26 04:46:02;;;;;;;;;;;;;;;-142.75;100.00;76377.38;5073077;28;19917;-70
2022/08/26 04:48:28;;;;;;;;;;;;;;;-142.75;100.00;76385.25;5072895;28;19912;-70
2022/08/26 04:50:54;;;;;;;;;;;;;;;-142.75;100.00;76381.31;5073446;28;20293;-69
2022/08/26 04:53:19;;;;;;;;;;;;;;;-142.75;100.00;76377.38;5073419;28;20002;-69
2022/08/26 04:55:44;;;;;;;;;;;;;;;-142.75;100.00;76383.28;5073385;28;19912;-70
2022/08/26 04:58:09;;;;;;;;;;;;;;;-142.75;100.00;76373.44;5071501;28;19977;-69
2022/08/26 05:00:35;;;;;;;;;;;;;;;-142.75;100.00;76373.44;5073328;28;19912;-69
2022/08/26 05:03:00;;;;;;;;;;;;;;;-142.75;100.00;76361.63;5071061;28;20010;-70
2022/08/26 05:05:25;;;;;;;;;;;;;;;-142.75;100.00;76377.38;5072985;28;19923;-69
2022/08/26 05:07:50;;;;;;;;;;;;;;;-142.75;100.00;76363.59;5072618;28;19916;-69
2022/08/26 05:10:16;;;;;;;;;;;;;;;-142.75;100.00;76359.66;5073123;28;19914;-70
2022/08/26 05:12:41;;;;;;;;;;;;;;;-142.75;100.00;76357.69;5073062;28;20477;-69
2022/08/26 05:15:07;;;;;;;;;;;;;;;-142.75;100.00;76367.53;5073009;28;20329;-69
2022/08/26 05:17:32;;;;;;;;;;;;;;;-142.75;100.00;76367.53;5088161;28;20293;-70
2022/08/26 05:19:57;;;;;;;;;;;;;;;-142.75;100.00;76373.44;5072866;28;20004;-70
2022/08/26 05:22:23;;;;;;;;;;;;;;;-142.75;100.00;76373.44;5072842;28;19922;-70
2022/08/26 05:24:48;;;;;;;;;;;;;;;-142.75;100.00;76365.56;5088404;28;20005;-70
2022/08/26 05:27:13;;;;;;;;;;;;;;;-142.75;100.00;76373.44;5072442;28;19919;-70
2022/08/26 05:29:39;;;;;;;;;;;;;;;-142.75;100.00;76371.47;5071384;28;19913;-70
2022/08/26 05:32:04;;;;;;;;;;;;;;;-142.75;100.00;76369.50;5088321;28;19912;-70
2022/08/26 05:34:29;;;;;;;;;;;;;;;-142.75;100.00;76365.56;5072550;28;19962;-69
2022/08/26 05:36:54;;;;;;;;;;;;;;;-142.75;100.00;76365.56;5087986;28;19909;-70
2022/08/26 05:39:22;;;;;;;;;;;;;;;-142.75;100.00;76367.53;5072522;28;19916;-70
2022/08/26 05:41:47;;;;;;;;;;;;;;;-142.75;100.00;76367.53;5072606;28;19995;-70
2022/08/26 05:44:14;;;;;;;;;;;;;;;-142.75;100.00;76369.50;5088063;28;19952;-69
2022/08/26 05:46:39;;;;;;;;;;;;;;;-142.75;100.00;76369.50;5072087;28;20304;-70
2022/08/26 05:49:05;;;;;;;;;;;;;;;-142.75;100.00;76369.50;5070968;28;19912;-69
2022/08/26 05:51:30;;;;;;;;;;;;;;;-142.75;100.00;76373.44;5072418;28;20382;-71
2022/08/26 05:53:56;;;;;;;;;;;;;;;-142.75;100.00;76369.50;5072357;28;19919;-70
2022/08/26 05:56:26;;;;;;;;;;;;;;;-142.75;100.00;76371.47;5072318;28;19935;-71
2022/08/26 05:58:51;;;;;;;;;;;;;;;-142.75;100.00;76365.56;5072097;28;19912;-70
2022/08/26 06:01:19;;;;;;;;;;;;;;;-142.75;100.00;76367.53;5072281;28;19913;-70
2022/08/26 06:03:45;;;;;;;;;;;;;;;-142.75;100.00;76373.44;5070896;28;19912;-70
2022/08/26 06:06:12;;;;;;;;;;;;;;;-142.75;100.00;76371.47;5072196;28;19943;-70
2022/08/26 06:08:37;;;;;;;;;;;;;;;-142.75;100.00;76365.56;5071635;28;20372;-70
2022/08/26 06:11:04;;;;;;;;;;;;;;;-142.75;100.00;76377.38;5072163;28;19912;-70
2022/08/26 06:13:31;;;;;;;;;;;;;;;-142.75;100.00;76381.31;5071913;28;19920;-70
2022/08/26 06:15:57;;;;;;;;;;;;;;;-142.75;100.00;76379.34;5072089;28;19912;-69
2022/08/26 06:18:26;;;;;;;;;;;;;;;-142.75;100.00;76373.44;5071740;28;19913;-70
2022/08/26 06:20:52;;;;;;;;;;;;;;;-142.75;100.00;76373.44;5072069;28;20381;-70
2022/08/26 06:26:02;;;;;;;;;;;;;;;-142.75;100.00;76375.41;5071910;28;19924;-71
2022/08/26 06:28:27;;;;;;;;;;;;;;;-142.75;100.00;76387.22;5086251;28;19913;-70
2022/08/26 06:30:54;;;;;;;;;;;;;;;-142.75;100.00;76381.31;5069896;28;20443;-70
2022/08/26 06:33:20;;;;;;;;;;;;;;;-142.75;100.00;76389.19;5070031;28;19913;-69
2022/08/26 06:35:45;;;;;;;;;;;;;;;-142.75;100.00;76406.91;5070672;28;19958;-69
2022/08/26 06:38:12;;;;;;;;;;;;;;;-142.75;100.00;76401.00;5071583;28;20400;-70
2022/08/26 06:40:47;;;;;;;;;;;;;;;-142.75;100.00;76395.09;5071908;28;19967;-69
2022/08/26 06:43:12;;;;;;;;;;;;;;;-142.75;100.00;76385.25;5071819;28;19912;-71
2022/08/26 06:45:38;;;;;;;;;;;;;;;-142.75;100.00;76381.31;5071747;28;19939;-71
2022/08/26 06:48:06;;;;;;;;;;;;;;;-142.75;100.00;76381.31;5086932;28;20335;-68
2022/08/26 06:50:32;;;;;;;;;;;;;;;-142.75;100.00;76381.31;5071681;28;19920;-69
2022/08/26 06:52:58;;;;;;;;;;;;;;;-142.75;100.00;76389.19;5069039;28;19920;-69
2022/08/26 06:55:23;;;;;;;;;;;;;;;-142.75;100.00;76399.03;5086536;28;20327;-70
2022/08/26 06:57:49;;;;;;;;;;;;;;;-142.75;100.00;76399.03;5086254;28;19995;-70
2022/08/26 07:00:14;;;;;;;;;;;;;;;-142.75;100.00;76408.88;5071109;28;19912;-71
2022/08/26 07:02:39;;;;;;;;;;;;;;;-142.75;100.00;76399.03;5071063;28;20333;-70
2022/08/26 07:05:05;;;;;;;;;;;;;;;-142.75;100.00;76385.25;5070375;28;19935;-70
2022/08/26 07:07:30;;;;;;;;;;;;;;;-142.75;100.00;76381.31;5070332;28;19916;-71
2022/08/26 07:09:56;;;;;;;;;;;;;;;-142.75;100.00;76389.19;5087469;22;19982;-67
2022/08/26 07:12:21;;;;;;;;;;;;;;;-142.75;100.00;76385.25;5070329;28;19916;-68
2022/08/26 07:14:47;;;;;;;;;;;;;;;-142.75;100.00;76389.19;5071634;28;19912;-66
2022/08/26 07:17:12;;;;;;;;;;;;;;;-142.75;100.00;76379.34;5070601;28;19912;-66
2022/08/26 07:19:37;;;;;;;;;;;;;;;-142.75;100.00;76391.16;5056754;28;20004;-65
2022/08/26 07:22:03;;;;;;;;;;;;;;;-142.75;100.00;76381.31;5036466;28;20011;-67
2022/08/26 07:24:29;;;;;;;;;;;;;;;-142.75;100.00;76393.13;5053623;28;19934;-67
2022/08/26 07:26:59;;;;;;;;;;;;;;;-142.75;100.00;76402.97;5062197;28;19920;-66
2022/08/26 07:29:24;;;;;;;;;;;;;;;-142.75;100.00;76424.63;5060394;28;19995;-66
2022/08/26 07:31:49;;;;;;;;;;;;;;;-142.75;100.00;76440.38;5064133;28;19967;-66
2022/08/26 07:34:16;;;;;;;;;;;;;;;-142.75;100.00;76452.19;5041767;28;20450;-65
2022/08/26 07:36:41;;;;;;;;;;;;;;;-142.75;100.00;76462.03;5056142;28;19913;-68
2022/08/26 07:39:06;;;;;;;;;;;;;;;-142.75;100.00;76462.03;5055916;28;19996;-68
2022/08/26 07:41:31;;;;;;;;;;;;;;;-142.75;100.00;76479.75;5057081;28;19970;-66
2022/08/26 07:43:56;;;;;;;;;;;;;;;-142.75;100.00;76458.09;5058039;28;20450;-66
2022/08/26 07:46:21;;;;;;;;;;;;;;;-142.75;100.00;76454.16;5056321;28;19971;-66
2022/08/26 07:48:48;;;;;;;;;;;;;;;-142.75;100.00;76440.38;5054715;28;19916;-65
2022/08/26 07:51:14;;;;;;;;;;;;;;;-142.75;100.00;76422.66;5052467;28;19917;-65
2022/08/26 07:53:40;;;;;;;;;;;;;;;-142.75;100.00;76418.72;5056448;28;19913;-66
2022/08/26 07:56:05;;;;;;;;;;;;;;;-142.75;100.00;76402.97;5057719;28;19927;-66
2022/08/26 07:58:30;;;;;;;;;;;;;;;-142.75;100.00;76395.09;5060139;28;20007;-65
2022/08/26 08:00:56;;;;;;;;;;;;;;;-142.75;100.00;76389.19;5060543;28;20010;-65
2022/08/26 08:03:21;;;;;;;;;;;;;;;-142.75;100.00;76375.41;5064327;28;19913;-65
2022/08/26 08:05:47;;;;;;;;;;;;;;;-142.75;100.00;76385.25;5057565;28;19923;-65
2022/08/26 08:08:12;;;;;;;;;;;;;;;-142.75;100.00;76391.16;5058146;28;19948;-65
2022/08/26 08:10:38;;;;;;;;;;;;;;;-142.75;100.00;76365.56;5056607;28;19955;-66
2022/08/26 08:13:05;;;;;;;;;;;;;;;-142.75;100.00;76355.72;5064538;28;19996;-65
2022/08/26 08:15:32;;;;;;;;;;;;;;;-142.75;100.00;76334.09;5060175;28;19920;-65
2022/08/26 08:17:57;;;;;;;;;;;;;;;-142.75;100.00;76334.09;5066181;28;20000;-66
2022/08/26 08:20:23;;;;;;;;;;;;;;;-142.75;100.00;76338.03;5064577;28;19964;-66
2022/08/26 08:22:49;;;;;;;;;;;;;;;-142.75;100.00;76334.09;5064101;28;19986;-66
2022/08/26 08:25:14;;;;;;;;;;;;;;;-142.75;100.00;76349.81;5065209;28;20030;-66
2022/08/26 08:27:41;;;;;;;;;;;;;;;-142.75;100.00;76338.03;5045919;28;20003;-66
2022/08/26 08:30:07;;;;;;;;;;;;;;;-142.75;100.00;76330.16;5065630;28;19912;-65
2022/08/26 08:32:32;;;;;;;;;;;;;;;-142.75;100.00;76341.97;5046665;28;19920;-65
2022/08/26 08:34:58;;;;;;;;;;;;;;;-142.75;100.00;76330.16;5064049;28;19917;-65
2022/08/26 08:37:23;;;;;;;;;;;;;;;-142.75;100.00;76332.13;5067659;28;19963;-64
2022/08/26 08:39:48;;;;;;;;;;;;;;;-142.75;100.00;76340.00;5059470;28;19913;-67
2022/08/26 08:42:39;;;;;;;;;;;;;;;-142.75;100.00;76328.19;5072037;28;20389;-65
2022/08/26 08:45:10;;;;;;;;;;;;;;;-142.75;100.00;76318.34;5062551;28;20579;-66
2022/08/26 08:47:41;;;;;;;;;;;;;;;-142.75;100.00;76326.22;5071816;28;19912;-66
2022/08/26 08:50:26;;;;;;;;;;;;;;;-142.75;100.00;76326.22;5071962;28;19912;-65
2022/08/26 08:53:11;;;;;;;;;;;;;;;-142.75;100.00;76324.25;5071931;28;20637;-66
2022/08/26 08:55:51;;;;;;;;;;;;;;;-142.75;100.00;76322.28;5072052;28;19958;-68
2022/08/26 08:58:19;;;;;;;;;;;;;;;-142.75;100.00;76316.38;5073613;28;20002;-68
2022/08/26 09:00:48;;;;;;;;;;;;;;;-142.75;100.00;76306.53;5073780;28;19912;-68
2022/08/26 09:03:23;;;;;;;;;;;;;;;-142.75;100.00;76286.84;5073818;28;19912;-67
2022/08/26 09:05:50;;;;;;;;;;;;;;;-142.75;100.00;76278.97;5073668;28;19917;-67
2022/08/26 09:08:21;;;;;;;;;;;;;;;-142.75;100.00;76271.09;5073379;28;19912;-66
2022/08/26 09:10:51;;;;;;;;;;;;;;;-142.75;100.00;76263.22;5073700;28;20023;-66
2022/08/26 09:13:19;;;;;;;;;;;;;;;-142.75;100.00;76263.22;5073649;28;20445;-65
2022/08/26 09:16:05;;;;;;;;;;;;;;;-142.75;100.00;76280.94;5073524;28;19916;-68
2022/08/26 09:18:30;;;;;;;;;;;;;;;-142.75;100.00;76312.44;5073266;28;19916;-68
2022/08/26 09:20:58;;;;;;;;;;;;;;;-142.75;100.00;76314.41;5073636;28;19913;-68
2022/08/26 09:23:23;;;;;;;;;;;;;;;-142.75;100.00;76338.03;5073499;28;19955;-68
2022/08/26 09:25:51;;;;;;;;;;;;;;;-142.75;100.00;76324.25;5073271;28;19952;-68
2022/08/26 09:28:18;;;;;;;;;;;;;;;-142.75;100.00;76324.25;5055017;28;19912;-66
2022/08/26 09:30:44;;;;;;;;;;;;;;;-142.75;100.00;76324.25;5073293;28;19971;-66
2022/08/26 09:33:14;;;;;;;;;;;;;;;-142.75;100.00;76330.16;5073301;28;20397;-66
2022/08/26 09:35:46;;;;;;;;;;;;;;;-142.75;100.00;76324.25;5073165;28;20365;-66
2022/08/26 09:38:25;;;;;;;;;;;;;;;-142.75;100.00;76318.34;5072725;28;19913;-65
2022/08/26 09:40:58;;;;;;;;;;;;;;;-142.75;100.00;76310.47;5073467;28;20493;-66
2022/08/26 09:43:24;;;;;;;;;;;;;;;-142.75;100.00;76310.47;5073226;28;19917;-66
2022/08/26 09:45:53;;;;;;;;;;;;;;;-142.75;100.00;76304.56;5073204;28;19916;-65
2022/08/26 09:48:29;;;;;;;;;;;;;;;-142.75;100.00;76300.63;5054168;28;19912;-66
2022/08/26 09:50:57;;;;;;;;;;;;;;;-142.75;100.00;76275.03;5073001;28;19912;-66
2022/08/26 09:53:29;;;;;;;;;;;;;;;-142.75;100.00;76265.19;5072858;28;19913;-66
2022/08/26 09:56:12;;;;;;;;;;;;;;;-142.75;100.00;76251.41;5073201;28;19920;-67
2022/08/26 09:58:39;;;;;;;;;;;;;;;-142.75;100.00;76243.53;5072502;28;19943;-67
2022/08/26 10:01:14;;;;;;;;;;;;;;;-142.75;100.00;76247.47;5072702;28;20377;-67
2022/08/26 10:03:40;;;;;;;;;;;;;;;-142.75;100.00;76251.41;5073164;28;20328;-67
2022/08/26 10:06:08;;;;;;;;;;;;;;;-142.75;100.00;76265.19;5072689;28;19924;-67
2022/08/26 10:08:39;;;;;;;;;;;;;;;-142.75;100.00;76265.19;5072411;28;20301;-67
2022/08/26 10:11:10;;;;;;;;;;;;;;;-142.75;100.00;76255.34;5072815;28;19912;-67
2022/08/26 10:13:39;;;;;;;;;;;;;;;-142.75;100.00;76243.53;5072738;28;19913;-67
2022/08/26 10:16:10;;;;;;;;;;;;;;;-142.75;100.00;76263.22;5072859;28;19928;-67
2022/08/26 10:18:40;;;;;;;;;;;;;;;-142.75;100.00;76290.78;5072309;28;19916;-67
2022/08/26 10:21:11;;;;;;;;;;;;;;;-142.75;100.00;76304.56;5072737;28;20050;-68
2022/08/26 10:23:41;;;;;;;;;;;;;;;-142.75;100.00;76306.53;5072668;28;19916;-68
2022/08/26 10:26:12;;;;;;;;;;;;;;;-142.75;100.00;76310.47;5054478;28;19917;-67
2022/08/26 10:29:00;;;;;;;;;;;;;;;-142.75;100.00;76330.16;5072276;28;19991;-68
2022/08/26 10:31:38;;;;;;;;;;;;;;;-142.75;100.00;76334.09;5072489;28;19942;-68
2022/08/26 10:34:03;;;;;;;;;;;;;;;-142.75;100.00;76332.13;5072386;28;19923;-68
2022/08/26 10:36:50;;;;;;;;;;;;;;;-142.75;100.00;76355.72;5072193;28;19917;-68
2022/08/26 10:39:21;;;;;;;;;;;;;;;-142.75;100.00;76359.66;5072338;28;19912;-68
2022/08/26 10:41:49;;;;;;;;;;;;;;;-142.75;100.00;76353.78;5072371;28;19957;-67
2022/08/26 10:44:16;;;;;;;;;;;;;;;-142.75;100.00;76343.94;5072289;28;20389;-68
2022/08/26 10:46:46;;;;;;;;;;;;;;;-142.75;100.00;76340.00;5071872;28;19917;-67
2022/08/26 10:49:13;;;;;;;;;;;;;;;-142.75;100.00;76328.19;5072263;28;19912;-67
2022/08/26 10:51:58;;;;;;;;;;;;;;;-142.75;100.00;76322.28;5072342;28;19912;-68
2022/08/26 10:54:29;;;;;;;;;;;;;;;-142.75;100.00;76318.34;5031483;28;19913;-68
2022/08/26 10:57:07;;;;;;;;;;;;;;;-142.75;100.00;76306.53;5077642;28;19919;-67
2022/08/26 10:59:38;;;;;;;;;;;;;;;-142.75;100.00;76267.16;5076931;28;19965;-67
2022/08/26 11:02:23;;;;;;;;;;;;;;;-142.75;100.00;76247.47;5076308;28;20363;-68
2022/08/26 11:04:54;;;;;;;;;;;;;;;-142.75;100.00;76229.75;5057874;28;19919;-67
2022/08/26 11:07:54;;;;;;;;;;;;;;;-142.75;100.00;76227.78;5075492;28;19951;-67
2022/08/26 11:10:20;;;;;;;;;;;;;;;-142.75;100.00;76227.78;5032889;28;19920;-67
2022/08/26 11:13:02;;;;;;;;;;;;;;;-142.75;100.00;76217.94;5077118;28;19966;-67
2022/08/26 11:15:28;;;;;;;;;;;;;;;-142.75;100.00;76227.78;5076187;28;19938;-67
2022/08/26 11:17:54;;;;;;;;;;;;;;;-142.75;100.00;76231.72;5075688;28;19916;-67
2022/08/26 11:20:22;;;;;;;;;;;;;;;-142.75;100.00;76235.66;5078151;28;20011;-66
2022/08/26 11:22:50;;;;;;;;;;;;;;;-142.75;100.00;76229.75;5080648;28;20305;-66
2022/08/26 11:25:17;;;;;;;;;;;;;;;-142.75;100.00;76233.69;5078859;28;19923;-66
2022/08/26 11:27:51;;;;;;;;;;;;;;;-142.75;100.00;76219.91;5059284;28;19920;-67
2022/08/26 11:30:19;;;;;;;;;;;;;;;-142.75;100.00;76210.06;5074493;28;19912;-66
2022/08/26 11:32:46;;;;;;;;;;;;;;;-142.75;100.00;76223.84;5048149;28;19917;-67
2022/08/26 11:35:23;;;;;;;;;;;;;;;-142.75;100.00;76243.53;5049421;28;19935;-67
2022/08/26 11:38:06;;;;;;;;;;;;;;;-142.75;100.00;76257.31;5065727;28;20401;-67
2022/08/26 11:40:37;;;;;;;;;;;;;;;-142.75;100.00;76261.25;5058425;28;19936;-67
2022/08/26 11:43:05;;;;;;;;;;;;;;;-142.75;100.00;76243.53;5058092;28;19994;-67
2022/08/26 11:45:37;;;;;;;;;;;;;;;-142.75;100.00;76239.59;5037981;28;19924;-67
2022/08/26 11:48:19;;;;;;;;;;;;;;;-142.75;100.00;76227.78;5057398;28;19913;-68
2022/08/26 11:50:52;;;;;;;;;;;;;;;-142.75;100.00;76215.97;5047945;28;19923;-67
2022/08/26 11:53:17;;;;;;;;;;;;;;;-142.75;100.00;76200.25;5064760;28;19912;-65
2022/08/26 11:55:43;;;;;;;;;;;;;;;-142.75;100.00;76180.56;5059166;28;19917;-65
2022/08/26 11:58:10;;;;;;;;;;;;;;;-142.75;100.00;76186.47;5037089;28;20266;-65
2022/08/26 12:00:56;;;;;;;;;;;;;;;-142.75;100.00;76192.38;5055267;28;19912;-68
2022/08/26 12:03:37;;;;;;;;;;;;;;;-142.75;100.00;76172.69;5054910;28;20392;-65
2022/08/26 12:06:10;;;;;;;;;;;;;;;-142.75;100.00;76172.69;5055028;28;20027;-65
2022/08/26 12:08:41;;;;;;;;;;;;;;;-142.75;100.00;76151.03;5054104;28;20344;-66
2022/08/26 12:11:08;;;;;;;;;;;;;;;-142.75;100.00;76137.25;5056294;28;19970;-68
2022/08/26 12:13:34;;;;;;;;;;;;;;;-142.75;100.00;76141.19;5065508;28;19975;-69
2022/08/26 12:15:59;;;;;;;;;;;;;;;-142.75;100.00;76137.25;5063201;28;19971;-68
2022/08/26 12:18:28;;;;;;;;;;;;;;;-142.75;100.00;76137.25;5054566;28;19917;-68
2022/08/26 12:20:55;;;;;;;;;;;;;;;-142.75;100.00;76172.69;5054697;28;19916;-67
2022/08/26 12:23:20;;;;;;;;;;;;;;;-142.75;100.00;76188.44;5054749;28;19959;-67